createdAt,value
2018-09-11T00:00:33.913Z,3.77
2018-09-11T00:03:02.879Z,3.87
2018-09-11T00:05:32.136Z,3.20
2018-09-11T00:08:01.005Z,3.73
2018-09-11T00:10:30.620Z,3.40
2018-09-11T00:12:59.750Z,3.17
2018-09-11T00:15:28.972Z,3.20
2018-09-11T00:17:58.113Z,3.10
2018-09-11T00:20:27.369Z,3.77
2018-09-11T00:22:56.792Z,3.20
2018-09-11T00:25:26.214Z,3.27
2018-09-11T00:27:55.242Z,3.80
2018-09-11T00:30:24.500Z,3.77
2018-09-11T00:32:53.581Z,3.77
2018-09-11T00:35:22.964Z,3.33
2018-09-11T00:37:52.762Z,3.50
2018-09-11T00:40:22.321Z,3.67
2018-09-11T00:42:51.380Z,3.00
2018-09-11T00:45:20.317Z,2.97
2018-09-11T00:47:49.326Z,3.00
2018-09-11T00:50:18.774Z,3.30
2018-09-11T00:52:47.914Z,2.97
2018-09-11T00:55:17.145Z,2.97
2018-09-11T00:57:46.328Z,3.03
2018-09-11T01:00:15.518Z,3.30
2018-09-11T01:02:44.437Z,3.23
2018-09-11T01:05:13.502Z,3.37
2018-09-11T01:07:42.514Z,2.87
2018-09-11T01:10:11.802Z,3.43
2018-09-11T01:12:40.883Z,3.73
2018-09-11T01:15:10.614Z,3.23
2018-09-11T01:17:39.586Z,2.87
2018-09-11T01:20:09.292Z,3.40
2018-09-11T01:22:38.461Z,2.83
2018-09-11T01:25:07.597Z,3.03
2018-09-11T01:27:37.129Z,2.93
2018-09-11T01:30:06.703Z,3.30
2018-09-11T01:32:35.985Z,2.90
2018-09-11T01:35:05.133Z,3.23
2018-09-11T01:37:34.151Z,3.40
2018-09-11T01:40:03.025Z,3.03
2018-09-11T01:42:32.037Z,3.20
2018-09-11T01:45:01.088Z,2.87
2018-09-11T01:47:30.685Z,3.20
2018-09-11T01:49:59.673Z,3.40
2018-09-11T01:52:28.618Z,3.50
2018-09-11T01:54:57.733Z,3.10
2018-09-11T01:57:27.045Z,3.37
2018-09-11T01:59:56.162Z,3.10
2018-09-11T02:02:25.305Z,2.93
2018-09-11T02:04:54.777Z,2.83
2018-09-11T02:07:23.801Z,2.93
2018-09-11T02:09:52.797Z,2.87
2018-09-11T02:12:22.221Z,3.30
2018-09-11T02:14:51.209Z,2.70
2018-09-11T02:17:20.555Z,3.23
2018-09-11T02:19:49.677Z,2.87
2018-09-11T02:22:18.673Z,2.80
2018-09-11T02:24:47.633Z,2.83
2018-09-11T02:27:17.072Z,3.03
2018-09-11T02:29:46.339Z,3.60
2018-09-11T02:32:15.366Z,3.60
2018-09-11T02:34:44.549Z,3.17
2018-09-11T02:37:13.858Z,2.90
2018-09-11T02:39:42.962Z,2.87
2018-09-11T02:42:11.915Z,3.03
2018-09-11T02:44:41.244Z,3.63
2018-09-11T02:47:10.839Z,3.27
2018-09-11T02:49:39.849Z,3.50
2018-09-11T02:52:09.208Z,3.63
2018-09-11T02:54:38.486Z,3.93
2018-09-11T02:57:07.736Z,3.23
2018-09-11T02:59:36.861Z,3.07
2018-09-11T03:02:06.109Z,3.30
2018-09-11T03:04:35.114Z,3.17
2018-09-11T03:07:04.229Z,3.40
2018-09-11T03:09:33.224Z,3.47
2018-09-11T03:12:02.245Z,3.47
2018-09-11T03:14:31.322Z,3.43
2018-09-11T03:17:00.318Z,3.80
2018-09-11T03:19:29.631Z,4.30
2018-09-11T03:21:58.610Z,3.67
2018-09-11T03:24:27.516Z,3.73
2018-09-11T03:26:56.984Z,3.80
2018-09-11T03:29:26.098Z,3.80
2018-09-11T03:31:55.101Z,4.20
2018-09-11T03:34:24.109Z,3.53
2018-09-11T03:36:53.100Z,3.13
2018-09-11T03:39:22.101Z,3.93
2018-09-11T03:41:51.313Z,4.20
2018-09-11T03:44:20.410Z,4.10
2018-09-11T03:46:49.667Z,3.70
2018-09-11T03:49:18.778Z,3.70
2018-09-11T03:51:47.705Z,3.43
2018-09-11T03:54:16.763Z,3.70
2018-09-11T03:56:45.968Z,3.60
2018-09-11T03:59:15.229Z,3.83
2018-09-11T04:01:44.440Z,3.83
2018-09-11T04:04:13.789Z,4.10
2018-09-11T04:06:42.941Z,3.87
2018-09-11T04:09:13.206Z,3.57
2018-09-11T04:11:42.745Z,4.10
2018-09-11T04:14:11.745Z,3.77
2018-09-11T04:16:40.801Z,3.73
2018-09-11T04:19:10.162Z,3.73
2018-09-11T04:21:39.410Z,3.80
2018-09-11T04:24:08.253Z,3.83
2018-09-11T04:26:37.736Z,4.33
2018-09-11T04:29:06.949Z,4.20
2018-09-11T04:31:35.858Z,4.30
2018-09-11T04:34:05.005Z,3.80
2018-09-11T04:36:34.415Z,3.83
2018-09-11T04:39:04.654Z,4.10
2018-09-11T04:41:33.799Z,4.63
2018-09-11T04:44:02.850Z,4.17
2018-09-11T04:46:31.996Z,4.27
2018-09-11T04:49:01.024Z,4.03
2018-09-11T04:51:30.094Z,4.20
2018-09-11T04:53:59.100Z,4.37
2018-09-11T04:56:28.363Z,4.00
2018-09-11T04:58:57.550Z,4.40
2018-09-11T05:01:26.632Z,4.03
2018-09-11T05:03:55.640Z,4.20
2018-09-11T05:06:24.837Z,4.20
2018-09-11T05:08:54.169Z,3.90
2018-09-11T05:11:51.538Z,4.43
2018-09-11T05:14:20.612Z,3.97
2018-09-11T05:16:49.880Z,4.03
2018-09-11T05:19:19.882Z,3.80
2018-09-11T05:21:49.205Z,4.20
2018-09-11T05:24:18.345Z,3.80
2018-09-11T05:26:47.650Z,4.37
2018-09-11T05:29:16.665Z,4.30
2018-09-11T05:31:45.690Z,4.50
2018-09-11T05:34:15.878Z,4.20
2018-09-11T05:36:44.761Z,4.33
2018-09-11T05:39:13.858Z,4.43
2018-09-11T05:41:42.911Z,3.67
2018-09-11T05:44:11.909Z,4.50
2018-09-11T05:46:41.736Z,3.83
2018-09-11T05:49:10.966Z,4.47
2018-09-11T05:51:39.961Z,4.50
2018-09-11T05:54:09.153Z,4.53
2018-09-11T05:56:38.287Z,4.27
2018-09-11T05:59:07.921Z,4.70
2018-09-11T06:01:36.957Z,4.27
2018-09-11T06:04:06.049Z,4.70
2018-09-11T06:06:35.515Z,3.93
2018-09-11T06:09:07.032Z,3.90
2018-09-11T06:11:36.277Z,3.97
2018-09-11T06:14:05.285Z,3.90
2018-09-11T06:16:34.193Z,3.80
2018-09-11T06:19:03.550Z,3.77
2018-09-11T06:21:32.749Z,4.00
2018-09-11T06:24:01.941Z,3.87
2018-09-11T06:26:31.058Z,3.57
2018-09-11T06:29:00.171Z,3.47
2018-09-11T06:31:29.073Z,3.73
2018-09-11T06:33:58.323Z,4.40
2018-09-11T06:36:27.341Z,3.90
2018-09-11T06:38:56.724Z,3.53
2018-09-11T06:41:25.989Z,4.00
2018-09-11T06:43:55.002Z,3.73
2018-09-11T06:46:24.385Z,3.30
2018-09-11T06:48:53.473Z,3.80
2018-09-11T06:51:22.932Z,3.80
2018-09-11T06:53:51.969Z,3.60
2018-09-11T06:56:21.237Z,3.90
2018-09-11T06:58:50.653Z,3.80
2018-09-11T07:01:20.209Z,3.73
2018-09-11T07:03:49.531Z,3.83
2018-09-11T07:06:18.781Z,3.60
2018-09-11T07:08:47.967Z,3.33
2018-09-11T07:11:17.169Z,3.63
2018-09-11T07:13:46.264Z,3.93
2018-09-11T07:16:15.321Z,3.60
2018-09-11T07:18:44.636Z,3.93
2018-09-11T07:21:13.992Z,4.00
2018-09-11T07:23:43.225Z,3.77
2018-09-11T07:26:12.230Z,3.47
2018-09-11T07:28:41.152Z,3.50
2018-09-11T07:31:10.636Z,4.20
2018-09-11T07:33:40.027Z,3.37
2018-09-11T07:36:09.126Z,3.57
2018-09-11T07:38:38.174Z,3.80
2018-09-11T07:41:07.904Z,3.87
2018-09-11T07:43:37.086Z,3.37
2018-09-11T07:46:06.377Z,3.07
2018-09-11T07:48:35.574Z,3.47
2018-09-11T07:51:04.760Z,3.97
2018-09-11T07:53:34.003Z,3.50
2018-09-11T07:56:03.533Z,3.33
2018-09-11T07:58:32.854Z,3.40
2018-09-11T08:01:02.210Z,4.00
2018-09-11T08:03:31.676Z,3.13
2018-09-11T08:06:00.761Z,3.20
2018-09-11T08:08:29.753Z,3.43
2018-09-11T08:10:58.661Z,3.60
2018-09-11T08:13:27.957Z,3.03
2018-09-11T08:15:56.842Z,3.37
2018-09-11T08:18:26.262Z,3.63
2018-09-11T08:20:55.229Z,3.87
2018-09-11T08:23:24.276Z,3.57
2018-09-11T08:25:53.868Z,3.70
2018-09-11T08:28:22.831Z,3.33
2018-09-11T08:30:51.981Z,3.40
2018-09-11T08:33:21.138Z,3.43
2018-09-11T08:35:50.303Z,3.60
2018-09-11T08:38:19.474Z,3.63
2018-09-11T08:40:48.755Z,3.83
2018-09-11T08:43:18.117Z,3.53
2018-09-11T08:45:47.482Z,3.40
2018-09-11T08:48:17.025Z,3.90
2018-09-11T08:50:46.362Z,3.37
2018-09-11T08:53:15.662Z,3.40
2018-09-11T08:55:44.905Z,3.77
2018-09-11T08:58:13.960Z,3.50
2018-09-11T09:00:42.954Z,3.47
2018-09-11T09:03:11.968Z,3.53
2018-09-11T09:05:40.934Z,3.40
2018-09-11T09:08:10.305Z,3.40
2018-09-11T09:10:39.372Z,3.50
2018-09-11T09:13:08.793Z,3.40
2018-09-11T09:15:38.218Z,3.90
2018-09-11T09:18:07.615Z,3.17
2018-09-11T09:20:36.646Z,3.40
2018-09-11T09:23:05.924Z,4.03
2018-09-11T09:25:34.960Z,3.30
2018-09-11T09:28:04.260Z,3.40
2018-09-11T09:30:33.701Z,3.70
2018-09-11T09:33:03.110Z,3.37
2018-09-11T09:35:32.210Z,3.70
2018-09-11T09:38:01.329Z,3.60
2018-09-11T09:40:30.846Z,3.40
2018-09-11T09:43:00.216Z,3.33
2018-09-11T09:45:29.339Z,3.43
2018-09-11T09:47:58.672Z,3.60
2018-09-11T09:50:27.743Z,3.40
2018-09-11T09:52:57.067Z,3.33
2018-09-11T09:55:25.940Z,3.50
2018-09-11T09:57:55.074Z,3.30
2018-09-11T10:00:29.509Z,3.97
2018-09-11T10:02:58.778Z,3.63
2018-09-11T10:05:27.852Z,3.10
2018-09-11T10:07:57.182Z,3.57
2018-09-11T10:10:26.451Z,3.77
2018-09-11T10:12:55.648Z,3.83
2018-09-11T10:15:24.666Z,3.50
2018-09-11T10:17:53.608Z,3.93
2018-09-11T10:20:22.976Z,3.07
2018-09-11T10:22:51.931Z,3.53
2018-09-11T10:25:21.017Z,3.43
2018-09-11T10:27:49.893Z,3.90
2018-09-11T10:30:19.374Z,3.20
2018-09-11T10:32:48.497Z,3.53
2018-09-11T10:35:17.592Z,3.00
2018-09-11T10:37:46.557Z,3.70
2018-09-11T10:40:15.759Z,3.57
2018-09-11T10:42:45.148Z,3.53
2018-09-11T10:45:14.418Z,3.43
2018-09-11T10:47:44.117Z,3.90
2018-09-11T10:50:13.501Z,3.73
2018-09-11T10:52:42.791Z,3.60
2018-09-11T10:55:12.256Z,3.53
2018-09-11T10:57:41.375Z,3.70
2018-09-11T11:00:11.556Z,3.03
2018-09-11T11:02:40.656Z,3.60
2018-09-11T11:05:09.942Z,3.80
2018-09-11T11:07:39.982Z,3.63
2018-09-11T11:10:09.092Z,3.20
2018-09-11T11:12:39.243Z,3.73
2018-09-11T11:15:08.553Z,4.00
2018-09-11T11:17:38.053Z,4.03
2018-09-11T11:20:07.883Z,3.60
2018-09-11T11:22:37.745Z,3.80
2018-09-11T11:25:07.035Z,3.37
2018-09-11T11:27:36.288Z,3.10
2018-09-11T11:30:05.730Z,3.47
2018-09-11T11:32:34.950Z,3.30
2018-09-11T11:35:04.275Z,4.13
2018-09-11T11:37:33.478Z,3.13
2018-09-11T11:40:02.477Z,4.20
2018-09-11T11:42:31.506Z,3.67
2018-09-11T11:45:00.434Z,3.60
2018-09-11T11:47:29.670Z,3.63
2018-09-11T11:49:59.073Z,3.37
2018-09-11T11:52:28.203Z,3.73
2018-09-11T11:54:57.726Z,3.53
2018-09-11T11:57:27.925Z,3.53
2018-09-11T11:59:56.970Z,3.50
2018-09-11T12:02:26.190Z,3.77
2018-09-11T12:04:55.116Z,3.83
2018-09-11T12:07:24.148Z,4.27
2018-09-11T12:09:53.182Z,4.17
2018-09-11T12:12:22.084Z,3.43
2018-09-11T12:14:51.222Z,3.70
2018-09-11T12:17:20.121Z,3.30
2018-09-11T12:19:49.079Z,3.50
2018-09-11T12:22:18.310Z,3.90
2018-09-11T12:24:47.381Z,3.30
2018-09-11T12:27:16.454Z,3.70
2018-09-11T12:29:45.472Z,4.03
2018-09-11T12:32:14.931Z,4.10
2018-09-11T12:34:44.183Z,4.00
2018-09-11T12:37:13.382Z,4.33
2018-09-11T12:39:42.722Z,3.87
2018-09-11T12:42:12.016Z,4.47
2018-09-11T12:44:41.313Z,3.93
2018-09-11T12:47:11.513Z,4.63
2018-09-11T12:49:41.382Z,4.63
2018-09-11T12:52:10.536Z,4.90
2018-09-11T12:54:39.805Z,4.67
2018-09-11T12:57:08.924Z,3.90
2018-09-11T12:59:38.014Z,4.17
2018-09-11T13:02:07.367Z,3.80
2018-09-11T13:04:36.633Z,3.93
2018-09-11T13:07:05.645Z,3.60
2018-09-11T13:09:34.883Z,3.30
2018-09-11T13:12:03.911Z,3.30
2018-09-11T13:14:33.010Z,3.50
2018-09-11T13:17:02.363Z,3.57
2018-09-11T13:19:31.518Z,3.40
2018-09-11T13:22:00.532Z,3.80
2018-09-11T13:24:30.006Z,3.83
2018-09-11T13:26:59.130Z,4.13
2018-09-11T13:29:28.165Z,3.83
2018-09-11T13:31:57.424Z,4.27
2018-09-11T13:34:26.955Z,4.30
2018-09-11T13:36:56.289Z,4.13
2018-09-11T13:39:25.657Z,4.03
2018-09-11T13:41:54.860Z,3.50
2018-09-11T13:44:23.850Z,4.13
2018-09-11T13:46:52.974Z,4.47
2018-09-11T13:49:22.123Z,4.33
2018-09-11T13:51:52.178Z,4.40
2018-09-11T13:54:21.378Z,3.90
2018-09-11T13:56:50.739Z,4.40
2018-09-11T13:59:20.805Z,3.70
2018-09-11T14:01:49.841Z,4.10
2018-09-11T14:04:18.816Z,4.33
2018-09-11T14:06:47.874Z,4.30
2018-09-11T14:09:17.082Z,4.17
2018-09-11T14:11:46.098Z,4.13
2018-09-11T14:14:15.504Z,3.30
2018-09-11T14:16:44.376Z,4.43
2018-09-11T14:19:13.525Z,3.80
2018-09-11T14:21:42.769Z,3.87
2018-09-11T14:24:12.072Z,4.23
2018-09-11T14:26:41.093Z,4.00
2018-09-11T14:29:10.226Z,3.83
2018-09-11T14:31:39.373Z,4.43
2018-09-11T14:34:08.241Z,4.20
2018-09-11T14:36:37.300Z,4.30
2018-09-11T14:39:09.390Z,3.80
2018-09-11T14:41:38.596Z,4.40
2018-09-11T14:44:07.846Z,4.10
2018-09-11T14:46:37.392Z,4.00
2018-09-11T14:49:06.671Z,4.10
2018-09-11T14:51:35.927Z,4.70
2018-09-11T14:54:04.867Z,4.70
2018-09-11T14:56:33.982Z,4.60
2018-09-11T14:59:03.566Z,4.83
2018-09-11T15:01:32.885Z,4.53
2018-09-11T15:04:02.357Z,4.53
2018-09-11T15:06:31.382Z,4.53
2018-09-11T15:09:00.716Z,4.53
2018-09-11T15:11:29.986Z,4.83
2018-09-11T15:13:59.384Z,4.03
2018-09-11T15:16:28.626Z,4.80
2018-09-11T15:18:57.845Z,4.23
2018-09-11T15:21:31.011Z,3.90
2018-09-11T15:24:00.246Z,3.67
2018-09-11T15:26:29.464Z,3.50
2018-09-11T15:28:58.847Z,3.60
2018-09-11T15:31:27.815Z,3.63
2018-09-11T15:33:56.974Z,3.83
2018-09-11T15:36:26.121Z,4.37
2018-09-11T15:38:55.112Z,3.77
2018-09-11T15:41:24.018Z,4.03
2018-09-11T15:43:53.082Z,4.07
2018-09-11T15:46:22.006Z,4.43
2018-09-11T15:48:51.599Z,3.80
2018-09-11T15:51:20.728Z,4.00
2018-09-11T15:53:49.858Z,4.00
2018-09-11T15:56:19.598Z,3.20
2018-09-11T15:58:48.700Z,3.80
2018-09-11T16:01:17.775Z,3.67
2018-09-11T16:03:47.409Z,3.60
2018-09-11T16:06:16.740Z,3.80
2018-09-11T16:08:45.924Z,3.10
2018-09-11T16:11:15.187Z,3.80
2018-09-11T16:13:44.734Z,3.50
2018-09-11T16:16:13.757Z,3.13
2018-09-11T16:18:43.034Z,3.03
2018-09-11T16:21:12.125Z,3.40
2018-09-11T16:23:41.589Z,3.57
2018-09-11T16:26:10.776Z,3.27
2018-09-11T16:28:39.935Z,3.00
2018-09-11T16:31:09.076Z,3.20
2018-09-11T16:33:38.472Z,3.37
2018-09-11T16:36:07.562Z,3.13
2018-09-11T16:38:36.690Z,3.37
2018-09-11T16:41:05.853Z,3.40
2018-09-11T16:43:35.189Z,3.57
2018-09-11T16:46:04.331Z,3.43
2018-09-11T16:48:33.476Z,3.67
2018-09-11T16:51:02.801Z,3.70
2018-09-11T16:53:32.009Z,3.70
2018-09-11T16:56:00.955Z,3.40
2018-09-11T16:58:30.097Z,3.57
2018-09-11T17:00:59.330Z,3.80
2018-09-11T17:03:29.493Z,3.80
2018-09-11T17:05:58.562Z,3.90
2018-09-11T17:08:27.998Z,3.37
2018-09-11T17:10:57.445Z,3.77
2018-09-11T17:13:26.605Z,4.27
2018-09-11T17:15:55.706Z,3.53
2018-09-11T17:18:24.653Z,3.83
2018-09-11T17:20:53.745Z,3.77
2018-09-11T17:23:23.588Z,3.60
2018-09-11T17:25:53.442Z,3.63
2018-09-11T17:28:22.528Z,3.87
2018-09-11T17:30:51.637Z,3.40
2018-09-11T17:33:20.685Z,3.30
2018-09-11T17:35:50.176Z,3.40
2018-09-11T17:38:19.134Z,3.80
2018-09-11T17:40:48.304Z,3.70
2018-09-11T17:43:17.726Z,3.47
2018-09-11T17:45:46.745Z,3.97
2018-09-11T17:48:15.966Z,3.93
2018-09-11T17:50:45.113Z,3.60
2018-09-11T17:53:14.292Z,3.43
2018-09-11T17:55:43.328Z,3.23
2018-09-11T17:58:12.555Z,3.33
2018-09-11T18:00:42.207Z,2.90
2018-09-11T18:03:11.236Z,3.27
2018-09-11T18:05:40.540Z,3.40
2018-09-11T18:08:10.450Z,3.40
2018-09-11T18:10:39.939Z,3.27
2018-09-11T18:13:08.989Z,3.10
2018-09-11T18:15:37.885Z,3.33
2018-09-11T18:18:07.066Z,2.83
2018-09-11T18:20:36.817Z,2.90
2018-09-11T18:23:05.943Z,3.30
2018-09-11T18:25:34.830Z,3.00
2018-09-11T18:28:03.835Z,3.13
2018-09-11T18:30:32.817Z,3.37
2018-09-11T18:33:01.780Z,2.80
2018-09-11T18:35:30.853Z,2.73
2018-09-11T18:37:59.916Z,2.90
2018-09-11T18:40:28.880Z,2.80
2018-09-11T18:42:57.906Z,2.93
2018-09-11T18:45:26.975Z,2.80
2018-09-11T18:47:56.461Z,2.57
2018-09-11T18:50:25.522Z,3.00
2018-09-11T18:52:54.652Z,2.67
2018-09-11T18:55:23.662Z,2.60
2018-09-11T18:57:52.986Z,2.20
2018-09-11T19:00:27.166Z,2.20
2018-09-11T19:02:56.902Z,2.67
2018-09-11T19:05:25.899Z,2.20
2018-09-11T19:07:54.950Z,2.10
2018-09-11T19:10:24.985Z,2.30
2018-09-11T19:12:54.087Z,2.30
2018-09-11T19:15:23.466Z,1.97
2018-09-11T19:17:53.019Z,2.37
2018-09-11T19:20:22.097Z,2.00
2018-09-11T19:22:51.522Z,1.77
2018-09-11T19:25:20.609Z,1.90
2018-09-11T19:27:49.631Z,1.90
2018-09-11T19:30:19.231Z,2.13
2018-09-11T19:32:48.363Z,2.00
2018-09-11T19:35:17.441Z,2.03
2018-09-11T19:37:46.787Z,1.80
2018-09-11T19:40:15.919Z,2.10
2018-09-11T19:42:45.103Z,1.63
2018-09-11T19:45:14.158Z,1.73
2018-09-11T19:47:43.378Z,1.70
2018-09-11T19:50:12.367Z,1.60
2018-09-11T19:52:41.668Z,2.03
2018-09-11T19:55:10.893Z,1.73
2018-09-11T19:57:40.681Z,2.03
2018-09-11T20:00:09.857Z,1.70
2018-09-11T20:02:39.021Z,1.97
2018-09-11T20:05:08.249Z,1.40
2018-09-11T20:07:37.485Z,1.57
2018-09-11T20:10:06.764Z,1.80
2018-09-11T20:12:35.972Z,1.97
2018-09-11T20:15:05.306Z,1.70
2018-09-11T20:17:34.585Z,1.50
2018-09-11T20:20:03.910Z,1.30
2018-09-11T20:22:33.146Z,1.67
2018-09-11T20:25:03.141Z,1.43
2018-09-11T20:27:32.157Z,1.90
2018-09-11T20:30:01.134Z,1.77
2018-09-11T20:32:30.938Z,1.60
2018-09-11T20:35:00.163Z,1.60
2018-09-11T20:37:29.694Z,1.40
2018-09-11T20:39:59.270Z,1.60
2018-09-11T20:42:28.617Z,1.63
2018-09-11T20:44:58.099Z,1.80
2018-09-11T20:47:28.246Z,1.70
2018-09-11T20:49:57.480Z,1.80
2018-09-11T20:52:26.798Z,1.97
2018-09-11T20:54:56.434Z,1.90
2018-09-11T20:57:26.281Z,2.00
2018-09-11T20:59:55.153Z,2.10
2018-09-11T21:02:24.333Z,2.00
2018-09-11T21:04:53.480Z,2.30
2018-09-11T21:07:22.600Z,2.77
2018-09-11T21:09:51.544Z,2.33
2018-09-11T21:12:20.506Z,2.73
2018-09-11T21:14:49.721Z,2.30
2018-09-11T21:17:18.887Z,2.43
2018-09-11T21:19:48.154Z,2.47
2018-09-11T21:22:17.175Z,2.53
2018-09-11T21:24:46.398Z,2.67
2018-09-11T21:27:15.730Z,2.57
2018-09-11T21:29:44.758Z,2.37
2018-09-11T21:32:14.914Z,2.57
2018-09-11T21:34:43.962Z,2.53
2018-09-11T21:37:13.127Z,2.77
2018-09-11T21:39:42.178Z,2.93
2018-09-11T21:42:11.122Z,3.00
2018-09-11T21:44:40.167Z,3.13
2018-09-11T21:47:09.158Z,2.90
2018-09-11T21:49:38.588Z,2.70
2018-09-11T21:52:07.843Z,3.17
2018-09-11T21:54:37.289Z,3.13
2018-09-11T21:57:06.719Z,2.87
2018-09-11T21:59:35.643Z,3.00
2018-09-11T22:02:04.763Z,4.23
2018-09-11T22:04:34.003Z,3.50
2018-09-11T22:07:03.032Z,3.30
2018-09-11T22:09:32.282Z,2.83
2018-09-11T22:12:01.678Z,3.20
2018-09-11T22:14:31.113Z,4.27
2018-09-11T22:17:00.315Z,3.50
2018-09-11T22:19:29.474Z,3.60
2018-09-11T22:21:58.701Z,3.20
2018-09-11T22:24:28.276Z,3.30
2018-09-11T22:26:57.321Z,3.10
2018-09-11T22:29:26.404Z,3.17
2018-09-11T22:31:55.425Z,3.00
2018-09-11T22:34:25.217Z,3.00
2018-09-11T22:36:54.200Z,3.37
2018-09-11T22:39:23.409Z,3.47
2018-09-11T22:41:52.706Z,3.40
2018-09-11T22:44:22.207Z,3.30
2018-09-11T22:46:51.364Z,3.27
2018-09-11T22:49:20.826Z,3.10
2018-09-11T22:51:49.712Z,4.00
2018-09-11T22:54:19.149Z,3.77
2018-09-11T22:56:48.120Z,3.57
2018-09-11T22:59:16.989Z,3.37
2018-09-11T23:01:46.085Z,3.43
2018-09-11T23:04:15.292Z,3.20
2018-09-11T23:06:44.291Z,4.10
2018-09-11T23:09:13.722Z,3.10
2018-09-11T23:11:42.685Z,3.47
2018-09-11T23:14:12.841Z,3.20
2018-09-11T23:16:41.956Z,3.10
2018-09-11T23:19:11.105Z,3.10
2018-09-11T23:21:40.554Z,3.20
2018-09-11T23:24:10.423Z,3.83
2018-09-11T23:26:39.404Z,3.17
2018-09-11T23:29:08.712Z,3.53
2018-09-11T23:31:38.163Z,3.27
2018-09-11T23:34:07.562Z,4.13
2018-09-11T23:36:36.728Z,3.30
2018-09-11T23:39:07.291Z,3.70
2018-09-11T23:41:36.825Z,3.30
2018-09-11T23:44:06.326Z,3.17
2018-09-11T23:46:35.265Z,3.47
2018-09-11T23:49:04.682Z,3.77
2018-09-11T23:51:33.731Z,3.27
2018-09-11T23:54:03.001Z,3.43
2018-09-11T23:56:31.972Z,3.30
2018-09-11T23:59:01.055Z,3.23
